createdAt,value
2018-12-12T00:00:44.451Z,0.00
2018-12-12T00:01:44.435Z,0.00
2018-12-12T00:02:44.448Z,0.00
2018-12-12T00:03:44.416Z,0.00
2018-12-12T00:04:44.427Z,0.00
2018-12-12T00:05:44.407Z,0.00
2018-12-12T00:06:44.397Z,0.00
2018-12-12T00:07:44.369Z,0.00
2018-12-12T00:08:44.357Z,0.00
2018-12-12T00:09:44.371Z,0.00
2018-12-12T00:10:44.367Z,0.00
2018-12-12T00:11:44.344Z,0.00
2018-12-12T00:12:44.306Z,0.00
2018-12-12T00:13:44.293Z,0.00
2018-12-12T00:14:44.286Z,0.00
2018-12-12T00:15:44.287Z,0.00
2018-12-12T00:16:44.328Z,0.00
2018-12-12T00:17:44.268Z,0.00
2018-12-12T00:18:44.248Z,0.00
2018-12-12T00:19:44.231Z,0.00
2018-12-12T00:20:44.214Z,0.00
2018-12-12T00:21:44.238Z,0.00
2018-12-12T00:22:44.197Z,0.00
2018-12-12T00:23:44.189Z,0.00
2018-12-12T00:24:44.168Z,0.00
2018-12-12T00:25:44.161Z,0.00
2018-12-12T00:26:44.148Z,0.00
2018-12-12T00:27:44.159Z,0.00
2018-12-12T00:28:44.123Z,0.00
2018-12-12T00:29:44.131Z,0.00
2018-12-12T00:30:44.098Z,0.00
2018-12-12T00:31:44.109Z,0.00
2018-12-12T00:32:44.084Z,0.00
2018-12-12T00:33:44.068Z,0.00
2018-12-12T00:34:44.065Z,0.00
2018-12-12T00:35:44.050Z,0.00
2018-12-12T00:36:44.062Z,0.00
2018-12-12T00:37:44.030Z,0.00
2018-12-12T00:38:44.008Z,0.00
2018-12-12T00:39:44.001Z,0.00
2018-12-12T00:40:44.029Z,0.00
2018-12-12T00:41:43.993Z,0.00
2018-12-12T00:42:43.971Z,0.00
2018-12-12T00:43:43.984Z,0.00
2018-12-12T00:44:43.941Z,0.00
2018-12-12T00:45:43.930Z,0.00
2018-12-12T00:46:43.962Z,0.00
2018-12-12T00:47:43.904Z,0.00
2018-12-12T00:48:43.897Z,0.00
2018-12-12T00:49:43.894Z,0.00
2018-12-12T00:50:43.872Z,0.00
2018-12-12T00:51:43.876Z,0.00
2018-12-12T00:52:43.870Z,0.00
2018-12-12T00:53:43.869Z,0.00
2018-12-12T00:54:43.845Z,0.00
2018-12-12T00:55:43.811Z,0.00
2018-12-12T00:56:43.806Z,0.00
2018-12-12T00:57:43.811Z,0.00
2018-12-12T00:58:43.783Z,0.00
2018-12-12T00:59:43.768Z,0.00
2018-12-12T01:00:43.776Z,0.00
2018-12-12T01:01:43.765Z,0.00
2018-12-12T01:02:43.759Z,0.00
2018-12-12T01:03:43.727Z,0.00
2018-12-12T01:04:43.713Z,0.00
2018-12-12T01:05:43.712Z,0.00
2018-12-12T01:06:43.726Z,0.00
2018-12-12T01:07:43.673Z,0.00
2018-12-12T01:08:43.666Z,0.00
2018-12-12T01:09:43.691Z,0.00
2018-12-12T01:10:43.650Z,0.00
2018-12-12T01:11:43.644Z,0.00
2018-12-12T01:12:43.643Z,0.00
2018-12-12T01:13:43.608Z,0.00
2018-12-12T01:14:43.603Z,0.00
2018-12-12T01:15:43.584Z,0.00
2018-12-12T01:16:43.599Z,0.00
2018-12-12T01:17:43.585Z,0.00
2018-12-12T01:18:43.547Z,0.00
2018-12-12T01:19:43.544Z,0.00
2018-12-12T01:20:43.524Z,0.00
2018-12-12T01:21:43.516Z,0.00
2018-12-12T01:22:43.578Z,0.00
2018-12-12T01:23:43.553Z,0.00
2018-12-12T01:24:43.480Z,0.00
2018-12-12T01:25:43.471Z,0.00
2018-12-12T01:26:43.500Z,0.00
2018-12-12T01:27:43.471Z,0.00
2018-12-12T01:28:43.514Z,0.00
2018-12-12T01:29:43.436Z,0.00
2018-12-12T01:30:43.409Z,0.00
2018-12-12T01:31:43.400Z,0.00
2018-12-12T01:32:43.392Z,0.00
2018-12-12T01:33:43.399Z,0.00
2018-12-12T01:34:43.361Z,0.00
2018-12-12T01:35:43.382Z,0.00
2018-12-12T01:36:43.339Z,0.00
2018-12-12T01:37:43.332Z,0.00
2018-12-12T01:38:43.337Z,0.00
2018-12-12T01:39:43.305Z,0.00
2018-12-12T01:40:43.300Z,0.00
2018-12-12T01:41:43.292Z,0.00
2018-12-12T01:42:43.273Z,0.00
2018-12-12T01:43:43.278Z,0.00
2018-12-12T01:44:43.246Z,0.00
2018-12-12T01:45:51.275Z,0.00
2018-12-12T01:46:43.225Z,0.00
2018-12-12T01:47:43.210Z,0.00
2018-12-12T01:48:43.222Z,0.00
2018-12-12T01:49:43.189Z,0.00
2018-12-12T01:50:43.251Z,0.00
2018-12-12T01:51:43.215Z,0.00
2018-12-12T01:52:43.152Z,0.00
2018-12-12T01:53:43.139Z,0.00
2018-12-12T01:54:43.146Z,0.00
2018-12-12T01:55:43.129Z,0.00
2018-12-12T01:56:43.106Z,0.00
2018-12-12T01:57:43.094Z,0.00
2018-12-12T01:58:43.086Z,0.00
2018-12-12T01:59:43.098Z,0.00
2018-12-12T02:00:43.076Z,0.00
2018-12-12T02:01:43.047Z,0.00
2018-12-12T02:02:43.037Z,0.00
2018-12-12T02:03:43.024Z,0.00
2018-12-12T02:04:43.034Z,0.00
2018-12-12T02:05:43.005Z,0.00
2018-12-12T02:06:42.992Z,0.00
2018-12-12T02:07:43.007Z,0.00
2018-12-12T02:08:42.966Z,0.00
2018-12-12T02:09:42.987Z,0.00
2018-12-12T02:10:42.945Z,0.00
2018-12-12T02:11:42.964Z,0.00
2018-12-12T02:12:42.948Z,0.00
2018-12-12T02:13:42.921Z,0.00
2018-12-12T02:14:42.931Z,0.00
2018-12-12T02:15:42.885Z,0.00
2018-12-12T02:16:42.881Z,0.00
2018-12-12T02:17:42.883Z,0.00
2018-12-12T02:18:42.853Z,0.00
2018-12-12T02:19:42.891Z,0.00
2018-12-12T02:20:42.830Z,0.00
2018-12-12T02:21:42.824Z,0.00
2018-12-12T02:22:42.821Z,0.00
2018-12-12T02:23:42.793Z,0.00
2018-12-12T02:24:42.810Z,0.00
2018-12-12T02:25:42.769Z,0.00
2018-12-12T02:26:42.769Z,0.00
2018-12-12T02:27:42.756Z,0.00
2018-12-12T02:28:42.737Z,0.00
2018-12-12T02:29:42.747Z,0.00
2018-12-12T02:30:42.726Z,0.00
2018-12-12T02:31:42.698Z,0.00
2018-12-12T02:32:42.695Z,0.00
2018-12-12T02:33:42.694Z,0.00
2018-12-12T02:34:42.682Z,0.00
2018-12-12T02:35:42.651Z,0.00
2018-12-12T02:36:42.645Z,0.00
2018-12-12T02:37:42.636Z,0.00
2018-12-12T02:38:42.623Z,0.00
2018-12-12T02:39:42.641Z,0.00
2018-12-12T02:40:42.597Z,0.00
2018-12-12T02:41:42.582Z,0.00
2018-12-12T02:42:42.581Z,0.00
2018-12-12T02:43:42.561Z,0.00
2018-12-12T02:44:42.574Z,0.00
2018-12-12T02:45:42.554Z,0.00
2018-12-12T02:46:42.524Z,0.00
2018-12-12T02:47:42.512Z,0.00
2018-12-12T02:48:42.501Z,0.00
2018-12-12T02:49:42.545Z,0.00
2018-12-12T02:50:42.478Z,0.00
2018-12-12T02:51:42.472Z,0.00
2018-12-12T02:52:42.471Z,0.00
2018-12-12T02:53:42.466Z,0.00
2018-12-12T02:54:42.448Z,0.00
2018-12-12T02:55:42.439Z,0.00
2018-12-12T02:56:42.414Z,0.00
2018-12-12T02:57:42.392Z,0.00
2018-12-12T02:58:42.389Z,0.00
2018-12-12T02:59:42.400Z,0.00
2018-12-12T03:00:42.382Z,0.00
2018-12-12T03:01:42.347Z,0.00
2018-12-12T03:02:42.334Z,0.00
2018-12-12T03:03:42.324Z,0.00
2018-12-12T03:04:42.314Z,0.00
2018-12-12T03:05:42.319Z,0.00
2018-12-12T03:06:42.309Z,0.00
2018-12-12T03:07:42.275Z,0.00
2018-12-12T03:08:42.264Z,0.00
2018-12-12T03:09:42.256Z,0.00
2018-12-12T03:10:42.274Z,0.00
2018-12-12T03:11:42.238Z,0.00
2018-12-12T03:12:42.217Z,0.00
2018-12-12T03:13:42.213Z,0.00
2018-12-12T03:14:42.198Z,0.00
2018-12-12T03:15:42.212Z,0.00
2018-12-12T03:16:42.184Z,0.00
2018-12-12T03:17:42.167Z,0.00
2018-12-12T03:18:42.152Z,0.00
2018-12-12T03:19:42.158Z,0.00
2018-12-12T03:20:42.160Z,0.00
2018-12-12T03:21:42.121Z,0.00
2018-12-12T03:22:42.114Z,0.00
2018-12-12T03:23:42.092Z,0.00
2018-12-12T03:24:42.077Z,0.00
2018-12-12T03:25:42.117Z,0.00
2018-12-12T03:26:42.063Z,0.00
2018-12-12T03:27:42.049Z,0.00
2018-12-12T03:28:42.038Z,0.00
2018-12-12T03:29:42.056Z,0.00
2018-12-12T03:30:42.017Z,0.00
2018-12-12T03:31:42.024Z,0.00
2018-12-12T03:32:41.991Z,0.00
2018-12-12T03:33:41.992Z,0.00
2018-12-12T03:34:41.984Z,0.00
2018-12-12T03:35:41.952Z,0.00
2018-12-12T03:36:41.958Z,0.00
2018-12-12T03:37:41.928Z,0.00
2018-12-12T03:38:41.917Z,0.00
2018-12-12T03:39:41.911Z,0.00
2018-12-12T03:40:41.900Z,0.00
2018-12-12T03:41:41.903Z,0.00
2018-12-12T03:42:41.877Z,0.00
2018-12-12T03:43:41.857Z,0.00
2018-12-12T03:44:41.861Z,0.00
2018-12-12T03:45:41.851Z,0.00
2018-12-12T03:46:41.842Z,0.00
2018-12-12T03:47:41.819Z,0.00
2018-12-12T03:48:41.801Z,0.00
2018-12-12T03:49:41.794Z,0.00
2018-12-12T03:50:41.784Z,0.00
2018-12-12T03:51:41.807Z,0.00
2018-12-12T03:52:41.753Z,0.00
2018-12-12T03:53:41.744Z,0.00
2018-12-12T03:54:41.737Z,0.00
2018-12-12T03:55:41.722Z,0.00
2018-12-12T03:56:41.757Z,0.00
2018-12-12T03:57:41.706Z,0.00
2018-12-12T03:58:41.689Z,0.00
2018-12-12T03:59:41.678Z,0.00
2018-12-12T04:00:41.666Z,0.00
2018-12-12T04:01:41.655Z,0.00
2018-12-12T04:02:41.663Z,0.00
2018-12-12T04:03:41.633Z,0.00
2018-12-12T04:04:41.621Z,0.00
2018-12-12T04:05:41.660Z,0.00
2018-12-12T04:06:41.603Z,0.00
2018-12-12T04:07:41.604Z,0.00
2018-12-12T04:08:41.574Z,0.00
2018-12-12T04:09:41.565Z,0.00
2018-12-12T04:10:41.557Z,0.00
2018-12-12T04:11:41.536Z,0.00
2018-12-12T04:12:41.539Z,0.00
2018-12-12T04:13:41.510Z,0.00
2018-12-12T04:14:41.498Z,0.00
2018-12-12T04:15:41.499Z,0.00
2018-12-12T04:16:41.477Z,0.00
2018-12-12T04:17:41.483Z,0.00
2018-12-12T04:18:41.451Z,0.00
2018-12-12T04:19:41.439Z,0.00
2018-12-12T04:20:41.429Z,0.00
2018-12-12T04:21:41.424Z,0.00
2018-12-12T04:22:41.437Z,0.00
2018-12-12T04:23:41.397Z,0.00
2018-12-12T04:24:41.405Z,0.00
2018-12-12T04:25:41.367Z,0.00
2018-12-12T04:26:41.361Z,0.00
2018-12-12T04:27:41.429Z,0.00
2018-12-12T04:28:41.357Z,0.00
2018-12-12T04:29:41.323Z,0.00
2018-12-12T04:30:41.322Z,0.00
2018-12-12T04:31:41.301Z,0.00
2018-12-12T04:32:41.312Z,0.00
2018-12-12T04:33:41.316Z,0.00
2018-12-12T04:34:41.267Z,0.00
2018-12-12T04:35:41.252Z,0.00
2018-12-12T04:36:41.239Z,0.00
2018-12-12T04:37:41.230Z,0.00
2018-12-12T04:38:41.243Z,0.00
2018-12-12T04:39:41.203Z,0.00
2018-12-12T04:40:41.192Z,0.00
2018-12-12T04:41:41.180Z,0.00
2018-12-12T04:42:41.172Z,0.00
2018-12-12T04:43:41.186Z,0.00
2018-12-12T04:44:41.161Z,0.00
2018-12-12T04:45:41.134Z,0.00
2018-12-12T04:46:41.125Z,0.00
2018-12-12T04:47:41.114Z,0.00
2018-12-12T04:48:41.099Z,0.00
2018-12-12T04:49:41.133Z,0.00
2018-12-12T04:50:41.092Z,0.00
2018-12-12T04:51:41.065Z,0.00
2018-12-12T04:52:42.840Z,0.00
2018-12-12T04:53:41.142Z,0.00
2018-12-12T04:54:41.046Z,0.00
2018-12-12T04:55:41.096Z,0.00
2018-12-12T04:56:41.009Z,0.00
2018-12-12T04:57:40.993Z,0.00
2018-12-12T04:58:40.991Z,0.00
2018-12-12T04:59:40.993Z,0.00
2018-12-12T05:00:40.964Z,0.00
2018-12-12T05:01:40.973Z,0.00
2018-12-12T05:02:40.938Z,0.00
2018-12-12T05:03:40.923Z,0.00
2018-12-12T05:04:40.930Z,0.00
2018-12-12T05:05:40.911Z,0.00
2018-12-12T05:06:40.901Z,0.00
2018-12-12T05:07:40.875Z,0.00
2018-12-12T05:08:40.887Z,0.00
2018-12-12T05:09:40.876Z,0.00
2018-12-12T05:10:40.840Z,0.00
2018-12-12T05:11:40.829Z,0.00
2018-12-12T05:12:40.838Z,0.00
2018-12-12T05:13:40.806Z,0.00
2018-12-12T05:14:40.796Z,0.00
2018-12-12T05:15:40.803Z,0.00
2018-12-12T05:16:40.788Z,0.00
2018-12-12T05:17:40.769Z,0.00
2018-12-12T05:18:40.745Z,0.00
2018-12-12T05:19:40.747Z,0.00
2018-12-12T05:20:40.770Z,0.00
2018-12-12T05:21:40.712Z,0.00
2018-12-12T05:22:40.705Z,0.00
2018-12-12T05:23:40.700Z,0.00
2018-12-12T05:24:40.708Z,0.00
2018-12-12T05:25:40.687Z,0.00
2018-12-12T05:26:40.656Z,0.00
2018-12-12T05:27:40.664Z,0.00
2018-12-12T05:28:40.629Z,0.00
2018-12-12T05:29:40.617Z,0.00
2018-12-12T05:30:40.641Z,0.00
2018-12-12T05:31:40.597Z,0.00
2018-12-12T05:32:40.598Z,0.00
2018-12-12T05:33:40.604Z,0.00
2018-12-12T05:34:40.561Z,0.00
2018-12-12T05:35:40.546Z,0.00
2018-12-12T05:36:40.554Z,0.00
2018-12-12T05:37:40.523Z,0.00
2018-12-12T05:38:40.512Z,0.00
2018-12-12T05:39:40.582Z,0.00
2018-12-12T05:40:40.502Z,0.00
2018-12-12T05:41:40.590Z,0.00
2018-12-12T05:42:40.469Z,0.00
2018-12-12T05:43:40.457Z,0.00
2018-12-12T05:44:40.445Z,0.00
2018-12-12T05:45:40.488Z,0.00
2018-12-12T05:46:41.938Z,0.00
2018-12-12T05:47:40.417Z,0.00
2018-12-12T05:48:40.394Z,0.00
2018-12-12T05:49:40.383Z,0.00
2018-12-12T05:50:40.372Z,0.00
2018-12-12T05:51:40.360Z,0.00
2018-12-12T05:52:40.368Z,0.00
2018-12-12T05:53:40.352Z,0.00
2018-12-12T05:54:40.328Z,0.00
2018-12-12T05:55:40.313Z,0.00
2018-12-12T05:56:40.301Z,0.00
2018-12-12T05:57:40.318Z,0.00
2018-12-12T05:58:40.280Z,0.00
2018-12-12T05:59:40.272Z,0.00
2018-12-12T06:00:40.272Z,0.00
2018-12-12T06:01:40.248Z,0.00
2018-12-12T06:02:40.261Z,0.00
2018-12-12T06:03:40.219Z,0.00
2018-12-12T06:04:40.211Z,0.00
2018-12-12T06:05:40.196Z,0.00
2018-12-12T06:06:40.200Z,0.00
2018-12-12T06:07:40.196Z,0.00
2018-12-12T06:08:40.164Z,0.00
2018-12-12T06:09:40.153Z,0.00
2018-12-12T06:10:40.184Z,0.00
2018-12-12T06:11:40.125Z,0.00
2018-12-12T06:12:40.155Z,0.00
2018-12-12T06:13:40.108Z,0.00
2018-12-12T06:14:40.099Z,0.00
2018-12-12T06:15:40.080Z,0.00
2018-12-12T06:16:40.072Z,0.00
2018-12-12T06:17:40.067Z,0.00
2018-12-12T06:18:40.064Z,0.00
2018-12-12T06:19:40.033Z,0.00
2018-12-12T06:20:40.025Z,0.00
2018-12-12T06:21:40.011Z,0.00
2018-12-12T06:22:40.010Z,0.00
2018-12-12T06:23:40.005Z,0.00
2018-12-12T06:24:39.976Z,0.00
2018-12-12T06:25:39.979Z,0.00
2018-12-12T06:26:39.967Z,0.00
2018-12-12T06:27:39.948Z,0.00
2018-12-12T06:28:39.966Z,0.00
2018-12-12T06:29:39.918Z,0.00
2018-12-12T06:30:39.909Z,0.00
2018-12-12T06:31:39.894Z,0.00
2018-12-12T06:32:39.884Z,0.00
2018-12-12T06:33:39.894Z,0.00
2018-12-12T06:34:41.139Z,0.00
2018-12-12T06:35:39.853Z,0.00
2018-12-12T06:36:39.835Z,0.00
2018-12-12T06:37:39.835Z,0.00
2018-12-12T06:38:39.839Z,0.00
2018-12-12T06:39:39.803Z,0.00
2018-12-12T06:40:39.788Z,0.00
2018-12-12T06:41:39.777Z,0.00
2018-12-12T06:42:39.798Z,0.00
2018-12-12T06:43:39.755Z,0.00
2018-12-12T06:44:39.746Z,0.00
2018-12-12T06:45:39.730Z,0.00
2018-12-12T06:46:39.743Z,0.00
2018-12-12T06:47:39.729Z,0.00
2018-12-12T06:48:39.704Z,0.00
2018-12-12T06:49:39.684Z,0.00
2018-12-12T06:50:39.696Z,0.00
2018-12-12T06:51:39.698Z,0.00
2018-12-12T06:52:39.666Z,0.00
2018-12-12T06:53:39.645Z,0.00
2018-12-12T06:54:39.624Z,0.00
2018-12-12T06:55:39.611Z,0.00
2018-12-12T06:56:39.626Z,0.00
2018-12-12T06:57:39.627Z,0.00
2018-12-12T06:58:39.577Z,0.00
2018-12-12T06:59:39.576Z,0.00
2018-12-12T07:00:39.571Z,0.00
2018-12-12T07:01:39.541Z,0.00
2018-12-12T07:02:39.573Z,0.00
2018-12-12T07:03:39.520Z,0.00
2018-12-12T07:04:39.504Z,0.00
2018-12-12T07:05:39.496Z,0.00
2018-12-12T07:06:39.496Z,0.00
2018-12-12T07:07:39.474Z,0.00
2018-12-12T07:08:39.482Z,0.00
2018-12-12T07:09:39.447Z,0.00
2018-12-12T07:10:39.435Z,0.00
2018-12-12T07:11:39.430Z,0.00
2018-12-12T07:12:39.413Z,0.00
2018-12-12T07:13:39.428Z,0.00
2018-12-12T07:14:39.390Z,0.00
2018-12-12T07:15:39.377Z,0.00
2018-12-12T07:16:39.371Z,0.00
2018-12-12T07:17:39.354Z,0.00
2018-12-12T07:18:39.364Z,0.00
2018-12-12T07:19:39.334Z,5.62
2018-12-12T07:20:39.319Z,5.62
2018-12-12T07:21:39.319Z,5.62
2018-12-12T07:22:39.300Z,5.62
2018-12-12T07:23:39.304Z,5.62
2018-12-12T07:24:39.313Z,5.62
2018-12-12T07:25:39.260Z,5.62
2018-12-12T07:26:39.262Z,5.62
2018-12-12T07:27:39.243Z,5.62
2018-12-12T07:28:39.248Z,5.62
2018-12-12T07:29:39.215Z,5.62
2018-12-12T07:30:39.204Z,5.62
2018-12-12T07:31:39.190Z,5.62
2018-12-12T07:32:39.203Z,11.25
2018-12-12T07:33:39.204Z,11.25
2018-12-12T07:34:39.161Z,11.25
2018-12-12T07:35:39.147Z,11.25
2018-12-12T07:36:39.131Z,11.25
2018-12-12T07:37:39.120Z,11.25
2018-12-12T07:38:39.128Z,16.88
2018-12-12T07:39:39.124Z,16.88
2018-12-12T07:40:39.094Z,16.88
2018-12-12T07:41:39.073Z,16.88
2018-12-12T07:42:39.062Z,16.88
2018-12-12T07:43:39.070Z,16.88
2018-12-12T07:44:39.039Z,22.50
2018-12-12T07:45:39.043Z,22.50
2018-12-12T07:46:39.015Z,22.50
2018-12-12T07:47:39.005Z,22.50
2018-12-12T07:48:39.012Z,28.12
2018-12-12T07:49:38.980Z,28.12
2018-12-12T07:50:38.970Z,28.12
2018-12-12T07:51:38.966Z,28.12
2018-12-12T07:52:38.958Z,33.75
2018-12-12T07:53:38.952Z,33.75
2018-12-12T07:54:38.923Z,33.75
2018-12-12T07:55:38.909Z,33.75
2018-12-12T07:56:38.901Z,39.38
2018-12-12T07:57:38.887Z,39.38
2018-12-12T07:58:38.927Z,39.38
2018-12-12T07:59:38.863Z,45.00
2018-12-12T08:00:38.854Z,45.00
2018-12-12T08:01:38.845Z,45.00
2018-12-12T08:02:38.832Z,45.00
2018-12-12T08:03:38.838Z,50.62
2018-12-12T08:04:38.803Z,50.62
2018-12-12T08:05:38.805Z,50.62
2018-12-12T08:06:38.784Z,50.62
2018-12-12T08:07:38.772Z,50.62
2018-12-12T08:08:38.785Z,56.25
2018-12-12T08:09:38.745Z,56.25
2018-12-12T08:10:38.736Z,56.25
2018-12-12T08:11:38.722Z,61.88
2018-12-12T08:12:38.728Z,61.88
2018-12-12T08:13:38.717Z,67.50
2018-12-12T08:14:38.698Z,67.50
2018-12-12T08:15:38.676Z,67.50
2018-12-12T08:16:38.674Z,67.50
2018-12-12T08:17:38.652Z,67.50
2018-12-12T08:18:38.662Z,73.12
2018-12-12T08:19:38.633Z,73.12
2018-12-12T08:20:38.624Z,73.12
2018-12-12T08:21:38.605Z,78.75
2018-12-12T08:22:38.600Z,78.75
2018-12-12T08:23:38.604Z,78.75
2018-12-12T08:24:38.574Z,73.12
2018-12-12T08:25:38.558Z,73.12
2018-12-12T08:26:38.623Z,78.75
2018-12-12T08:27:39.379Z,78.75
2018-12-12T08:28:38.545Z,78.75
2018-12-12T08:29:38.515Z,78.75
2018-12-12T08:30:38.507Z,84.38
2018-12-12T08:31:38.490Z,84.38
2018-12-12T08:32:38.521Z,90.00
2018-12-12T08:33:38.487Z,90.00
2018-12-12T08:34:38.462Z,90.00
2018-12-12T08:35:38.445Z,90.00
2018-12-12T08:36:38.445Z,90.00
2018-12-12T08:37:38.421Z,95.62
2018-12-12T08:38:38.439Z,95.62
2018-12-12T08:39:38.406Z,95.62
2018-12-12T08:40:38.391Z,95.62
2018-12-12T08:41:38.376Z,90.00
2018-12-12T08:42:38.364Z,90.00
2018-12-12T08:43:38.378Z,90.00
2018-12-12T08:44:38.342Z,90.00
2018-12-12T08:45:38.336Z,90.00
2018-12-12T08:46:38.321Z,95.62
2018-12-12T08:47:38.317Z,95.62
2018-12-12T08:48:38.338Z,95.62
2018-12-12T08:49:38.286Z,101.25
2018-12-12T08:50:38.274Z,101.25
2018-12-12T08:51:38.267Z,101.25
2018-12-12T08:52:38.269Z,106.88
2018-12-12T08:53:38.241Z,112.50
2018-12-12T08:54:38.255Z,106.88
2018-12-12T08:55:38.218Z,112.50
2018-12-12T08:56:38.220Z,112.50
2018-12-12T08:57:38.205Z,118.12
2018-12-12T08:58:38.183Z,123.75
2018-12-12T08:59:38.203Z,129.38
2018-12-12T09:00:38.193Z,129.38
2018-12-12T09:01:38.150Z,129.38
2018-12-12T09:02:38.139Z,129.38
2018-12-12T09:03:38.128Z,129.38
2018-12-12T09:04:38.151Z,123.75
2018-12-12T09:05:38.109Z,118.12
2018-12-12T09:06:38.098Z,118.12
2018-12-12T09:07:38.091Z,118.12
2018-12-12T09:08:38.071Z,112.50
2018-12-12T09:09:38.061Z,112.50
2018-12-12T09:10:38.068Z,106.88
2018-12-12T09:11:38.046Z,106.88
2018-12-12T09:12:38.053Z,101.25
2018-12-12T09:13:38.014Z,101.25
2018-12-12T09:14:38.002Z,101.25
2018-12-12T09:15:38.061Z,106.88
2018-12-12T09:16:37.979Z,112.50
2018-12-12T09:17:37.968Z,112.50
2018-12-12T09:18:37.961Z,118.12
2018-12-12T09:19:37.947Z,118.12
2018-12-12T09:20:37.958Z,123.75
2018-12-12T09:21:37.923Z,129.38
2018-12-12T09:22:37.922Z,135.00
2018-12-12T09:23:37.924Z,140.62
2018-12-12T09:24:37.886Z,146.25
2018-12-12T09:25:37.901Z,151.88
2018-12-12T09:26:37.865Z,157.50
2018-12-12T09:27:37.852Z,157.50
2018-12-12T09:28:37.842Z,163.12
2018-12-12T09:29:37.867Z,163.12
2018-12-12T09:30:37.818Z,163.12
2018-12-12T09:31:37.841Z,174.38
2018-12-12T09:32:37.793Z,180.00
2018-12-12T09:33:37.787Z,180.00
2018-12-12T09:34:37.773Z,180.00
2018-12-12T09:35:37.777Z,185.62
2018-12-12T09:36:37.776Z,185.62
2018-12-12T09:37:37.742Z,185.62
2018-12-12T09:38:37.725Z,191.25
2018-12-12T09:39:37.715Z,191.25
2018-12-12T09:40:37.706Z,191.25
2018-12-12T09:41:37.734Z,196.88
2018-12-12T09:42:37.680Z,196.88
2018-12-12T09:43:44.703Z,196.88
2018-12-12T09:44:37.657Z,196.88
2018-12-12T09:45:37.643Z,196.88
2018-12-12T09:46:37.634Z,196.88
2018-12-12T09:47:37.642Z,196.88
2018-12-12T09:48:37.612Z,202.50
2018-12-12T09:49:37.599Z,208.12
2018-12-12T09:50:37.587Z,213.75
2018-12-12T09:51:37.578Z,219.38
2018-12-12T09:52:37.583Z,219.38
2018-12-12T09:53:37.552Z,219.38
2018-12-12T09:54:37.540Z,219.38
2018-12-12T09:55:37.532Z,213.75
2018-12-12T09:56:37.517Z,202.50
2018-12-12T09:57:37.554Z,196.88
2018-12-12T09:58:37.496Z,196.88
2018-12-12T09:59:37.482Z,196.88
2018-12-12T10:00:37.471Z,202.50
2018-12-12T10:01:37.460Z,202.50
2018-12-12T10:02:37.448Z,202.50
2018-12-12T10:03:37.462Z,196.88
2018-12-12T10:04:37.424Z,196.88
2018-12-12T10:05:37.414Z,196.88
2018-12-12T10:06:37.403Z,202.50
2018-12-12T10:07:37.389Z,208.12
2018-12-12T10:08:37.432Z,213.75
2018-12-12T10:09:37.387Z,213.75
2018-12-12T10:10:37.352Z,213.75
2018-12-12T10:11:37.342Z,213.75
2018-12-12T10:12:37.330Z,219.38
2018-12-12T10:13:37.316Z,219.38
2018-12-12T10:14:37.322Z,213.75
2018-12-12T10:15:37.293Z,208.12
2018-12-12T10:16:37.285Z,208.12
2018-12-12T10:17:37.268Z,208.12
2018-12-12T10:18:37.260Z,213.75
2018-12-12T10:19:37.270Z,219.38
2018-12-12T10:20:37.236Z,219.38
2018-12-12T10:21:37.222Z,213.75
2018-12-12T10:22:37.211Z,202.50
2018-12-12T10:23:37.198Z,191.25
2018-12-12T10:24:37.209Z,202.50
2018-12-12T10:25:37.175Z,208.12
2018-12-12T10:26:37.164Z,213.75
2018-12-12T10:27:37.153Z,202.50
2018-12-12T10:28:37.142Z,196.88
2018-12-12T10:29:38.400Z,196.88
2018-12-12T10:30:37.134Z,202.50
2018-12-12T10:31:37.104Z,202.50
2018-12-12T10:32:37.092Z,202.50
2018-12-12T10:33:37.786Z,202.50
2018-12-12T10:34:37.141Z,196.88
2018-12-12T10:35:37.076Z,202.50
2018-12-12T10:36:37.046Z,208.12
2018-12-12T10:37:37.035Z,219.38
2018-12-12T10:38:37.021Z,236.25
2018-12-12T10:39:37.012Z,247.50
2018-12-12T10:40:37.030Z,253.12
2018-12-12T10:41:36.988Z,253.12
2018-12-12T10:42:36.975Z,253.12
2018-12-12T10:43:36.964Z,253.12
2018-12-12T10:44:36.953Z,253.12
2018-12-12T10:45:36.941Z,247.50
2018-12-12T10:46:36.950Z,230.62
2018-12-12T10:47:36.917Z,213.75
2018-12-12T10:48:36.907Z,208.12
2018-12-12T10:49:36.896Z,208.12
2018-12-12T10:50:36.885Z,208.12
2018-12-12T10:51:36.889Z,213.75
2018-12-12T10:52:36.857Z,219.38
2018-12-12T10:53:36.845Z,225.00
2018-12-12T10:54:36.891Z,236.25
2018-12-12T10:55:36.823Z,247.50
2018-12-12T10:56:36.842Z,264.38
2018-12-12T10:57:36.801Z,275.62
2018-12-12T10:58:38.284Z,281.25
2018-12-12T10:59:36.776Z,281.25
2018-12-12T11:00:36.765Z,281.25
2018-12-12T11:01:36.752Z,281.25
2018-12-12T11:02:36.759Z,281.25
2018-12-12T11:03:36.729Z,275.62
2018-12-12T11:04:36.718Z,275.62
2018-12-12T11:05:36.705Z,270.00
2018-12-12T11:06:36.716Z,264.38
2018-12-12T11:07:36.684Z,258.75
2018-12-12T11:08:36.674Z,258.75
2018-12-12T11:09:36.660Z,258.75
2018-12-12T11:10:36.649Z,253.12
2018-12-12T11:11:36.657Z,247.50
2018-12-12T11:12:36.625Z,247.50
2018-12-12T11:13:36.612Z,241.88
2018-12-12T11:14:36.599Z,230.62
2018-12-12T11:15:36.587Z,213.75
2018-12-12T11:16:36.600Z,202.50
2018-12-12T11:17:36.564Z,196.88
2018-12-12T11:18:36.553Z,202.50
2018-12-12T11:19:36.544Z,208.12
2018-12-12T11:20:36.529Z,213.75
2018-12-12T11:21:36.516Z,219.38
2018-12-12T11:22:36.532Z,219.38
2018-12-12T11:23:36.493Z,225.00
2018-12-12T11:24:36.482Z,225.00
2018-12-12T11:25:36.471Z,219.38
2018-12-12T11:26:36.481Z,213.75
2018-12-12T11:27:36.447Z,202.50
2018-12-12T11:28:36.435Z,196.88
2018-12-12T11:29:36.422Z,196.88
2018-12-12T11:30:36.414Z,191.25
2018-12-12T11:31:36.400Z,185.62
2018-12-12T11:32:36.409Z,174.38
2018-12-12T11:33:36.379Z,174.38
2018-12-12T11:34:36.365Z,196.88
2018-12-12T11:35:36.355Z,213.75
2018-12-12T11:36:36.360Z,219.38
2018-12-12T11:37:36.331Z,219.38
2018-12-12T11:38:36.320Z,213.75
2018-12-12T11:39:36.310Z,219.38
2018-12-12T11:40:36.298Z,225.00
2018-12-12T11:41:36.314Z,236.25
2018-12-12T11:42:36.278Z,253.12
2018-12-12T11:43:36.262Z,270.00
2018-12-12T11:44:36.248Z,281.25
2018-12-12T11:45:36.238Z,292.50
2018-12-12T11:46:36.248Z,303.75
2018-12-12T11:47:36.213Z,309.38
2018-12-12T11:48:36.251Z,315.00
2018-12-12T11:49:36.190Z,303.75
2018-12-12T11:50:36.179Z,303.75
2018-12-12T11:51:36.213Z,315.00
2018-12-12T11:52:36.154Z,309.38
2018-12-12T11:53:36.142Z,303.75
2018-12-12T11:54:36.130Z,292.50
2018-12-12T11:55:36.117Z,281.25
2018-12-12T11:56:36.106Z,275.62
2018-12-12T11:57:36.113Z,264.38
2018-12-12T11:58:36.083Z,258.75
2018-12-12T11:59:36.069Z,275.62
2018-12-12T12:00:36.057Z,298.12
2018-12-12T12:01:36.046Z,331.88
2018-12-12T12:02:36.077Z,343.12
2018-12-12T12:03:36.023Z,348.75
2018-12-12T12:04:36.011Z,365.62
2018-12-12T12:05:36.000Z,376.88
2018-12-12T12:06:35.997Z,410.62
2018-12-12T12:07:35.975Z,427.50
2018-12-12T12:08:35.990Z,427.50
2018-12-12T12:09:35.950Z,483.75
2018-12-12T12:10:35.940Z,534.38
2018-12-12T12:11:35.928Z,950.62
2018-12-12T12:12:35.917Z,1299.38
2018-12-12T12:13:35.906Z,832.50
2018-12-12T12:14:35.913Z,1411.88
2018-12-12T12:15:35.881Z,1029.38
2018-12-12T12:16:35.871Z,1676.25
2018-12-12T12:17:35.858Z,1783.12
2018-12-12T12:18:35.846Z,1468.12
2018-12-12T12:19:35.856Z,1361.25
2018-12-12T12:20:35.823Z,1119.38
2018-12-12T12:21:35.810Z,1670.62
2018-12-12T12:22:35.798Z,1428.75
2018-12-12T12:23:35.787Z,1501.88
2018-12-12T12:24:35.797Z,1501.88
2018-12-12T12:25:35.763Z,928.12
2018-12-12T12:26:35.752Z,933.75
2018-12-12T12:27:35.741Z,1260.00
2018-12-12T12:28:35.727Z,1248.75
2018-12-12T12:29:35.741Z,1113.75
2018-12-12T12:30:35.710Z,956.25
2018-12-12T12:31:35.694Z,1400.62
2018-12-12T12:32:35.686Z,1485.00
2018-12-12T12:33:35.669Z,1395.00
2018-12-12T12:34:35.686Z,781.88
2018-12-12T12:35:35.646Z,703.12
2018-12-12T12:36:35.647Z,635.62
2018-12-12T12:37:35.624Z,630.00
2018-12-12T12:38:35.613Z,663.75
2018-12-12T12:39:35.606Z,545.62
2018-12-12T12:40:35.612Z,585.00
2018-12-12T12:41:35.578Z,675.00
2018-12-12T12:42:35.566Z,748.12
2018-12-12T12:43:35.555Z,810.00
2018-12-12T12:44:35.543Z,573.75
2018-12-12T12:45:35.531Z,551.25
2018-12-12T12:46:35.542Z,568.12
2018-12-12T12:47:35.509Z,601.88
2018-12-12T12:48:35.505Z,562.50
2018-12-12T12:49:35.486Z,720.00
2018-12-12T12:50:35.473Z,731.25
2018-12-12T12:51:35.460Z,933.75
2018-12-12T12:52:35.466Z,973.12
2018-12-12T12:53:35.439Z,624.38
2018-12-12T12:54:35.426Z,551.25
2018-12-12T12:55:35.417Z,804.38
2018-12-12T12:56:35.407Z,686.25
2018-12-12T12:57:35.415Z,489.38
2018-12-12T12:58:35.378Z,444.38